Centralia, Illinois
Current Conditions -  °F | °C
As of 6:35 PM on Wednesday 17 Dec 2014 (Local Time) from KENL Reporting Station
Clear Clear  
Wind Chill: 31°   Ceiling: Unl
Heat Index: 31°   Visibility: 10mi
Dew Point: 25°   Wind: 3mph
Humidity: 80%   Direction: 50°NE
Pressure: 30.3"   Gusts: NA
Location:  38.53°N, 89.13°W
Report Text: KENL 180035Z AUTO 05003KT 10SM CLR M01/M04 A3030 RMK AO2 T10061037
Loading
Personal Weather Stations






























Interactive Weather Map New forecast layout! Learn more

10-Day Weather Forecast

Advertisements
Track Severe Weather on mobile